sensor_id;sensor_type;location;lat;lon;timestamp;P1;durP1;ratioP1;P2;durP2;ratioP2
73023;SDS011;61199;47.526;8.538;2023-05-16T00:02:14;14.70;;;7.63;;
73023;SDS011;61199;47.526;8.538;2023-05-16T00:04:41;16.33;;;7.47;;
73023;SDS011;61199;47.526;8.538;2023-05-16T00:07:07;14.93;;;7.97;;
73023;SDS011;61199;47.526;8.538;2023-05-16T00:09:34;14.53;;;8.33;;
73023;SDS011;61199;47.526;8.538;2023-05-16T00:12:00;10.97;;;7.77;;
73023;SDS011;61199;47.526;8.538;2023-05-16T00:14:26;10.67;;;7.73;;
73023;SDS011;61199;47.526;8.538;2023-05-16T00:16:53;12.60;;;8.30;;
73023;SDS011;61199;47.526;8.538;2023-05-16T00:19:20;11.47;;;7.93;;
73023;SDS011;61199;47.526;8.538;2023-05-16T00:21:47;11.97;;;6.97;;
73023;SDS011;61199;47.526;8.538;2023-05-16T00:24:13;11.07;;;7.43;;
73023;SDS011;61199;47.526;8.538;2023-05-16T00:26:40;15.60;;;7.53;;
73023;SDS011;61199;47.526;8.538;2023-05-16T00:29:06;16.30;;;7.87;;
73023;SDS011;61199;47.526;8.538;2023-05-16T00:31:32;15.00;;;7.97;;
73023;SDS011;61199;47.526;8.538;2023-05-16T00:33:59;17.93;;;6.70;;
73023;SDS011;61199;47.526;8.538;2023-05-16T00:36:25;15.13;;;7.13;;
73023;SDS011;61199;47.526;8.538;2023-05-16T00:38:52;17.60;;;7.80;;
73023;SDS011;61199;47.526;8.538;2023-05-16T00:41:18;10.77;;;7.17;;
73023;SDS011;61199;47.526;8.538;2023-05-16T00:43:44;15.07;;;8.30;;
73023;SDS011;61199;47.526;8.538;2023-05-16T00:46:11;12.57;;;8.00;;
73023;SDS011;61199;47.526;8.538;2023-05-16T00:48:38;12.00;;;7.70;;
73023;SDS011;61199;47.526;8.538;2023-05-16T00:51:04;14.77;;;8.60;;
73023;SDS011;61199;47.526;8.538;2023-05-16T00:53:34;11.90;;;8.73;;
73023;SDS011;61199;47.526;8.538;2023-05-16T00:56:02;15.60;;;9.13;;
73023;SDS011;61199;47.526;8.538;2023-05-16T00:58:29;14.73;;;8.53;;
73023;SDS011;61199;47.526;8.538;2023-05-16T01:00:57;13.57;;;8.20;;
73023;SDS011;61199;47.526;8.538;2023-05-16T01:03:23;13.57;;;9.10;;
73023;SDS011;61199;47.526;8.538;2023-05-16T01:05:50;12.70;;;7.90;;
73023;SDS011;61199;47.526;8.538;2023-05-16T01:08:17;12.03;;;8.80;;
73023;SDS011;61199;47.526;8.538;2023-05-16T01:10:49;15.97;;;9.33;;
73023;SDS011;61199;47.526;8.538;2023-05-16T01:16:15;12.40;;;8.33;;
73023;SDS011;61199;47.526;8.538;2023-05-16T01:21:47;13.23;;;9.13;;
73023;SDS011;61199;47.526;8.538;2023-05-16T01:24:21;13.60;;;8.47;;
73023;SDS011;61199;47.526;8.538;2023-05-16T01:26:52;17.07;;;9.47;;
73023;SDS011;61199;47.526;8.538;2023-05-16T01:29:21;14.13;;;8.67;;
73023;SDS011;61199;47.526;8.538;2023-05-16T01:31:48;16.13;;;8.17;;
73023;SDS011;61199;47.526;8.538;2023-05-16T01:34:14;15.80;;;9.90;;
73023;SDS011;61199;47.526;8.538;2023-05-16T01:39:25;14.07;;;9.27;;
73023;SDS011;61199;47.526;8.538;2023-05-16T01:42:06;14.73;;;9.10;;
73023;SDS011;61199;47.526;8.538;2023-05-16T01:44:44;13.90;;;9.00;;
73023;SDS011;61199;47.526;8.538;2023-05-16T01:47:12;15.97;;;10.30;;
73023;SDS011;61199;47.526;8.538;2023-05-16T01:49:52;19.13;;;10.30;;
73023;SDS011;61199;47.526;8.538;2023-05-16T01:52:49;14.93;;;9.50;;
73023;SDS011;61199;47.526;8.538;2023-05-16T01:55:22;19.10;;;10.77;;
73023;SDS011;61199;47.526;8.538;2023-05-16T01:58:04;18.03;;;10.33;;
73023;SDS011;61199;47.526;8.538;2023-05-16T02:00:33;15.87;;;10.77;;
73023;SDS011;61199;47.526;8.538;2023-05-16T02:02:59;18.93;;;12.40;;
73023;SDS011;61199;47.526;8.538;2023-05-16T02:05:26;15.60;;;10.73;;
73023;SDS011;61199;47.526;8.538;2023-05-16T02:07:53;17.90;;;11.73;;
73023;SDS011;61199;47.526;8.538;2023-05-16T02:10:20;16.43;;;10.63;;
73023;SDS011;61199;47.526;8.538;2023-05-16T02:12:48;19.10;;;11.03;;
73023;SDS011;61199;47.526;8.538;2023-05-16T02:15:15;19.67;;;11.97;;
73023;SDS011;61199;47.526;8.538;2023-05-16T02:17:42;23.33;;;12.93;;
73023;SDS011;61199;47.526;8.538;2023-05-16T02:20:08;19.20;;;12.50;;
73023;SDS011;61199;47.526;8.538;2023-05-16T02:22:35;19.87;;;12.67;;
73023;SDS011;61199;47.526;8.538;2023-05-16T02:25:04;29.97;;;14.17;;
73023;SDS011;61199;47.526;8.538;2023-05-16T02:27:31;23.87;;;14.10;;
73023;SDS011;61199;47.526;8.538;2023-05-16T02:29:58;19.30;;;12.90;;
73023;SDS011;61199;47.526;8.538;2023-05-16T02:32:24;18.30;;;13.40;;
73023;SDS011;61199;47.526;8.538;2023-05-16T02:34:51;19.73;;;14.07;;
73023;SDS011;61199;47.526;8.538;2023-05-16T02:37:18;22.97;;;14.17;;
73023;SDS011;61199;47.526;8.538;2023-05-16T02:39:44;18.20;;;12.77;;
73023;SDS011;61199;47.526;8.538;2023-05-16T02:42:11;21.27;;;15.00;;
73023;SDS011;61199;47.526;8.538;2023-05-16T02:44:37;20.83;;;13.07;;
73023;SDS011;61199;47.526;8.538;2023-05-16T02:47:04;22.53;;;14.07;;
73023;SDS011;61199;47.526;8.538;2023-05-16T02:49:30;20.03;;;13.03;;
73023;SDS011;61199;47.526;8.538;2023-05-16T02:51:57;21.00;;;13.20;;
73023;SDS011;61199;47.526;8.538;2023-05-16T02:54:23;22.50;;;13.77;;
73023;SDS011;61199;47.526;8.538;2023-05-16T02:56:50;23.90;;;13.77;;
73023;SDS011;61199;47.526;8.538;2023-05-16T02:59:16;19.33;;;13.43;;
73023;SDS011;61199;47.526;8.538;2023-05-16T03:01:43;25.43;;;13.87;;
73023;SDS011;61199;47.526;8.538;2023-05-16T03:04:09;21.47;;;14.37;;
73023;SDS011;61199;47.526;8.538;2023-05-16T03:06:36;23.20;;;13.83;;
73023;SDS011;61199;47.526;8.538;2023-05-16T03:09:02;22.40;;;14.10;;
73023;SDS011;61199;47.526;8.538;2023-05-16T03:11:29;23.57;;;15.03;;
73023;SDS011;61199;47.526;8.538;2023-05-16T03:13:55;21.03;;;13.70;;
73023;SDS011;61199;47.526;8.538;2023-05-16T03:16:27;23.70;;;14.50;;
73023;SDS011;61199;47.526;8.538;2023-05-16T03:18:53;22.07;;;14.00;;
73023;SDS011;61199;47.526;8.538;2023-05-16T03:21:20;20.50;;;13.77;;
73023;SDS011;61199;47.526;8.538;2023-05-16T03:23:46;24.50;;;14.27;;
73023;SDS011;61199;47.526;8.538;2023-05-16T03:26:12;26.40;;;15.60;;
73023;SDS011;61199;47.526;8.538;2023-05-16T03:28:39;24.53;;;14.20;;
73023;SDS011;61199;47.526;8.538;2023-05-16T03:31:05;23.10;;;15.13;;
73023;SDS011;61199;47.526;8.538;2023-05-16T03:33:32;19.00;;;13.27;;
73023;SDS011;61199;47.526;8.538;2023-05-16T03:35:58;23.80;;;14.00;;
73023;SDS011;61199;47.526;8.538;2023-05-16T03:38:25;19.70;;;13.33;;
73023;SDS011;61199;47.526;8.538;2023-05-16T03:40:51;27.47;;;14.40;;
73023;SDS011;61199;47.526;8.538;2023-05-16T03:43:17;25.13;;;15.37;;
73023;SDS011;61199;47.526;8.538;2023-05-16T03:45:44;22.77;;;15.87;;
73023;SDS011;61199;47.526;8.538;2023-05-16T03:48:10;21.97;;;14.03;;
73023;SDS011;61199;47.526;8.538;2023-05-16T03:50:37;21.33;;;14.27;;
73023;SDS011;61199;47.526;8.538;2023-05-16T03:53:06;20.90;;;14.70;;
73023;SDS011;61199;47.526;8.538;2023-05-16T03:55:33;19.50;;;12.80;;
73023;SDS011;61199;47.526;8.538;2023-05-16T03:58:00;24.83;;;14.67;;
73023;SDS011;61199;47.526;8.538;2023-05-16T04:00:27;21.70;;;13.73;;
73023;SDS011;61199;47.526;8.538;2023-05-16T04:02:53;20.33;;;14.50;;
73023;SDS011;61199;47.526;8.538;2023-05-16T04:05:20;21.17;;;14.53;;
73023;SDS011;61199;47.526;8.538;2023-05-16T04:07:46;22.00;;;13.77;;
73023;SDS011;61199;47.526;8.538;2023-05-16T04:10:13;17.60;;;12.13;;
73023;SDS011;61199;47.526;8.538;2023-05-16T04:12:39;21.87;;;13.63;;
73023;SDS011;61199;47.526;8.538;2023-05-16T04:15:06;20.00;;;13.47;;
73023;SDS011;61199;47.526;8.538;2023-05-16T04:17:33;23.13;;;14.07;;
73023;SDS011;61199;47.526;8.538;2023-05-16T04:19:59;19.70;;;13.17;;
73023;SDS011;61199;47.526;8.538;2023-05-16T04:22:26;18.83;;;13.30;;
73023;SDS011;61199;47.526;8.538;2023-05-16T04:24:52;22.20;;;13.73;;
73023;SDS011;61199;47.526;8.538;2023-05-16T04:27:19;23.47;;;12.60;;
73023;SDS011;61199;47.526;8.538;2023-05-16T04:29:45;23.80;;;13.47;;
73023;SDS011;61199;47.526;8.538;2023-05-16T04:32:12;23.47;;;13.70;;
73023;SDS011;61199;47.526;8.538;2023-05-16T04:34:38;19.13;;;12.37;;
73023;SDS011;61199;47.526;8.538;2023-05-16T04:37:06;24.07;;;14.10;;
73023;SDS011;61199;47.526;8.538;2023-05-16T04:39:33;17.77;;;12.27;;
73023;SDS011;61199;47.526;8.538;2023-05-16T04:42:00;20.40;;;13.87;;
73023;SDS011;61199;47.526;8.538;2023-05-16T04:44:28;26.20;;;13.13;;
73023;SDS011;61199;47.526;8.538;2023-05-16T04:46:54;20.40;;;12.97;;
73023;SDS011;61199;47.526;8.538;2023-05-16T04:49:21;24.00;;;12.87;;
73023;SDS011;61199;47.526;8.538;2023-05-16T04:51:47;19.43;;;12.40;;
73023;SDS011;61199;47.526;8.538;2023-05-16T04:54:14;27.23;;;13.17;;
73023;SDS011;61199;47.526;8.538;2023-05-16T04:56:40;18.33;;;11.97;;
73023;SDS011;61199;47.526;8.538;2023-05-16T04:59:07;20.23;;;13.33;;
73023;SDS011;61199;47.526;8.538;2023-05-16T05:01:33;18.87;;;12.70;;
73023;SDS011;61199;47.526;8.538;2023-05-16T05:04:00;20.57;;;12.07;;
73023;SDS011;61199;47.526;8.538;2023-05-16T05:06:26;18.17;;;12.87;;
73023;SDS011;61199;47.526;8.538;2023-05-16T05:08:52;19.00;;;13.20;;
73023;SDS011;61199;47.526;8.538;2023-05-16T05:11:19;23.47;;;11.83;;
73023;SDS011;61199;47.526;8.538;2023-05-16T05:13:46;21.13;;;12.67;;
73023;SDS011;61199;47.526;8.538;2023-05-16T05:16:12;18.70;;;11.90;;
73023;SDS011;61199;47.526;8.538;2023-05-16T05:18:39;19.00;;;12.10;;
73023;SDS011;61199;47.526;8.538;2023-05-16T05:21:05;17.93;;;11.80;;
73023;SDS011;61199;47.526;8.538;2023-05-16T05:23:32;20.00;;;12.90;;
73023;SDS011;61199;47.526;8.538;2023-05-16T05:25:59;23.73;;;13.80;;
73023;SDS011;61199;47.526;8.538;2023-05-16T05:28:27;17.67;;;13.30;;
73023;SDS011;61199;47.526;8.538;2023-05-16T05:30:53;24.60;;;14.13;;
73023;SDS011;61199;47.526;8.538;2023-05-16T05:33:22;23.13;;;13.70;;
73023;SDS011;61199;47.526;8.538;2023-05-16T05:35:52;26.33;;;12.40;;
73023;SDS011;61199;47.526;8.538;2023-05-16T05:38:19;19.90;;;13.17;;
73023;SDS011;61199;47.526;8.538;2023-05-16T05:40:45;25.87;;;13.60;;
73023;SDS011;61199;47.526;8.538;2023-05-16T05:43:12;22.50;;;12.97;;
73023;SDS011;61199;47.526;8.538;2023-05-16T05:45:38;20.20;;;12.70;;
73023;SDS011;61199;47.526;8.538;2023-05-16T05:48:04;18.00;;;12.03;;
73023;SDS011;61199;47.526;8.538;2023-05-16T05:50:32;19.83;;;12.20;;
73023;SDS011;61199;47.526;8.538;2023-05-16T05:52:58;27.50;;;13.07;;
73023;SDS011;61199;47.526;8.538;2023-05-16T05:55:25;21.80;;;12.57;;
73023;SDS011;61199;47.526;8.538;2023-05-16T05:57:51;23.03;;;12.93;;
73023;SDS011;61199;47.526;8.538;2023-05-16T06:00:18;17.70;;;12.30;;
73023;SDS011;61199;47.526;8.538;2023-05-16T06:02:45;24.13;;;12.80;;
73023;SDS011;61199;47.526;8.538;2023-05-16T06:05:13;16.93;;;12.10;;
73023;SDS011;61199;47.526;8.538;2023-05-16T06:07:40;20.13;;;13.17;;
73023;SDS011;61199;47.526;8.538;2023-05-16T06:10:06;20.70;;;12.07;;
73023;SDS011;61199;47.526;8.538;2023-05-16T06:12:33;21.00;;;13.10;;
73023;SDS011;61199;47.526;8.538;2023-05-16T06:15:00;20.00;;;12.43;;
73023;SDS011;61199;47.526;8.538;2023-05-16T06:17:26;21.97;;;13.60;;
73023;SDS011;61199;47.526;8.538;2023-05-16T06:19:53;25.60;;;12.93;;
73023;SDS011;61199;47.526;8.538;2023-05-16T06:22:19;19.30;;;13.10;;
73023;SDS011;61199;47.526;8.538;2023-05-16T06:24:46;25.03;;;13.70;;
73023;SDS011;61199;47.526;8.538;2023-05-16T06:27:12;23.00;;;14.00;;
73023;SDS011;61199;47.526;8.538;2023-05-16T06:29:39;21.23;;;13.40;;
73023;SDS011;61199;47.526;8.538;2023-05-16T06:32:05;21.90;;;12.37;;
73023;SDS011;61199;47.526;8.538;2023-05-16T06:34:32;22.80;;;13.50;;
73023;SDS011;61199;47.526;8.538;2023-05-16T06:36:58;20.17;;;13.27;;
73023;SDS011;61199;47.526;8.538;2023-05-16T06:39:25;24.83;;;14.07;;
73023;SDS011;61199;47.526;8.538;2023-05-16T06:41:51;22.47;;;13.80;;
73023;SDS011;61199;47.526;8.538;2023-05-16T06:44:22;21.13;;;13.20;;
73023;SDS011;61199;47.526;8.538;2023-05-16T06:46:48;28.27;;;15.67;;
73023;SDS011;61199;47.526;8.538;2023-05-16T06:49:15;26.20;;;16.33;;
73023;SDS011;61199;47.526;8.538;2023-05-16T06:51:41;26.60;;;16.93;;
73023;SDS011;61199;47.526;8.538;2023-05-16T06:54:08;25.00;;;16.30;;
73023;SDS011;61199;47.526;8.538;2023-05-16T06:56:34;29.60;;;17.17;;
73023;SDS011;61199;47.526;8.538;2023-05-16T06:59:01;30.93;;;18.50;;
73023;SDS011;61199;47.526;8.538;2023-05-16T07:01:27;32.60;;;17.90;;
73023;SDS011;61199;47.526;8.538;2023-05-16T07:03:54;30.03;;;17.37;;
73023;SDS011;61199;47.526;8.538;2023-05-16T07:06:20;28.60;;;18.77;;
73023;SDS011;61199;47.526;8.538;2023-05-16T07:08:47;34.00;;;19.17;;
73023;SDS011;61199;47.526;8.538;2023-05-16T07:11:13;32.97;;;20.43;;
73023;SDS011;61199;47.526;8.538;2023-05-16T07:13:40;32.47;;;20.30;;
73023;SDS011;61199;47.526;8.538;2023-05-16T07:16:06;39.80;;;22.07;;
73023;SDS011;61199;47.526;8.538;2023-05-16T07:18:33;41.07;;;22.27;;
73023;SDS011;61199;47.526;8.538;2023-05-16T07:21:00;46.73;;;22.80;;
73023;SDS011;61199;47.526;8.538;2023-05-16T07:23:26;37.60;;;22.10;;
73023;SDS011;61199;47.526;8.538;2023-05-16T07:25:52;41.30;;;23.30;;
73023;SDS011;61199;47.526;8.538;2023-05-16T07:28:19;38.00;;;21.20;;
73023;SDS011;61199;47.526;8.538;2023-05-16T07:30:47;42.00;;;24.20;;
73023;SDS011;61199;47.526;8.538;2023-05-16T07:33:13;41.77;;;23.27;;
73023;SDS011;61199;47.526;8.538;2023-05-16T07:35:40;35.80;;;22.13;;
73023;SDS011;61199;47.526;8.538;2023-05-16T07:38:06;39.57;;;23.33;;
73023;SDS011;61199;47.526;8.538;2023-05-16T07:40:33;42.63;;;23.67;;
73023;SDS011;61199;47.526;8.538;2023-05-16T07:42:59;38.33;;;23.20;;
73023;SDS011;61199;47.526;8.538;2023-05-16T07:45:27;37.83;;;22.37;;
73023;SDS011;61199;47.526;8.538;2023-05-16T07:47:54;48.30;;;26.67;;
73023;SDS011;61199;47.526;8.538;2023-05-16T07:50:21;49.70;;;25.83;;
73023;SDS011;61199;47.526;8.538;2023-05-16T07:52:48;53.67;;;27.80;;
73023;SDS011;61199;47.526;8.538;2023-05-16T07:55:14;42.80;;;25.03;;
73023;SDS011;61199;47.526;8.538;2023-05-16T07:57:40;49.73;;;27.03;;
73023;SDS011;61199;47.526;8.538;2023-05-16T08:00:08;51.00;;;27.37;;
73023;SDS011;61199;47.526;8.538;2023-05-16T08:02:35;44.00;;;26.60;;
73023;SDS011;61199;47.526;8.538;2023-05-16T08:05:02;54.87;;;26.80;;
73023;SDS011;61199;47.526;8.538;2023-05-16T08:07:29;48.30;;;26.03;;
73023;SDS011;61199;47.526;8.538;2023-05-16T08:09:55;43.90;;;25.00;;
73023;SDS011;61199;47.526;8.538;2023-05-16T08:12:22;50.57;;;25.30;;
73023;SDS011;61199;47.526;8.538;2023-05-16T08:14:49;46.30;;;27.43;;
73023;SDS011;61199;47.526;8.538;2023-05-16T08:17:15;44.97;;;26.47;;
73023;SDS011;61199;47.526;8.538;2023-05-16T08:19:42;45.90;;;25.63;;
73023;SDS011;61199;47.526;8.538;2023-05-16T08:22:09;47.90;;;25.83;;
73023;SDS011;61199;47.526;8.538;2023-05-16T08:24:36;46.87;;;26.87;;
73023;SDS011;61199;47.526;8.538;2023-05-16T08:27:02;53.87;;;25.43;;
73023;SDS011;61199;47.526;8.538;2023-05-16T08:29:29;48.57;;;25.23;;
73023;SDS011;61199;47.526;8.538;2023-05-16T08:31:56;47.53;;;25.80;;
73023;SDS011;61199;47.526;8.538;2023-05-16T08:34:23;50.50;;;24.50;;
73023;SDS011;61199;47.526;8.538;2023-05-16T08:36:49;45.27;;;26.27;;
73023;SDS011;61199;47.526;8.538;2023-05-16T08:39:16;47.60;;;24.47;;
73023;SDS011;61199;47.526;8.538;2023-05-16T08:41:42;42.73;;;26.07;;
73023;SDS011;61199;47.526;8.538;2023-05-16T08:44:09;46.97;;;25.50;;
73023;SDS011;61199;47.526;8.538;2023-05-16T08:46:37;47.00;;;25.80;;
73023;SDS011;61199;47.526;8.538;2023-05-16T08:49:06;46.13;;;26.43;;
73023;SDS011;61199;47.526;8.538;2023-05-16T08:51:33;47.93;;;26.37;;
73023;SDS011;61199;47.526;8.538;2023-05-16T08:54:03;52.40;;;27.50;;
73023;SDS011;61199;47.526;8.538;2023-05-16T08:56:32;51.30;;;27.47;;
73023;SDS011;61199;47.526;8.538;2023-05-16T08:59:01;53.70;;;27.83;;
73023;SDS011;61199;47.526;8.538;2023-05-16T09:01:28;46.87;;;26.97;;
73023;SDS011;61199;47.526;8.538;2023-05-16T09:03:57;54.70;;;27.40;;
73023;SDS011;61199;47.526;8.538;2023-05-16T09:06:24;52.03;;;29.57;;
73023;SDS011;61199;47.526;8.538;2023-05-16T09:08:52;49.40;;;27.60;;
73023;SDS011;61199;47.526;8.538;2023-05-16T09:11:19;62.33;;;29.40;;
73023;SDS011;61199;47.526;8.538;2023-05-16T09:13:47;54.13;;;29.20;;
73023;SDS011;61199;47.526;8.538;2023-05-16T09:16:15;59.77;;;29.90;;
73023;SDS011;61199;47.526;8.538;2023-05-16T09:18:44;62.13;;;30.00;;
73023;SDS011;61199;47.526;8.538;2023-05-16T09:21:12;49.80;;;29.63;;
73023;SDS011;61199;47.526;8.538;2023-05-16T09:23:39;50.67;;;28.23;;
73023;SDS011;61199;47.526;8.538;2023-05-16T09:26:07;58.37;;;30.40;;
73023;SDS011;61199;47.526;8.538;2023-05-16T09:28:36;58.60;;;30.57;;
73023;SDS011;61199;47.526;8.538;2023-05-16T09:31:03;51.10;;;29.13;;
73023;SDS011;61199;47.526;8.538;2023-05-16T09:33:30;59.73;;;30.07;;
73023;SDS011;61199;47.526;8.538;2023-05-16T09:35:57;54.90;;;28.87;;
73023;SDS011;61199;47.526;8.538;2023-05-16T09:38:25;54.17;;;29.27;;
73023;SDS011;61199;47.526;8.538;2023-05-16T09:40:55;47.07;;;28.97;;
73023;SDS011;61199;47.526;8.538;2023-05-16T09:43:23;53.27;;;30.20;;
73023;SDS011;61199;47.526;8.538;2023-05-16T09:45:52;54.53;;;29.50;;
73023;SDS011;61199;47.526;8.538;2023-05-16T09:48:20;55.07;;;29.70;;
73023;SDS011;61199;47.526;8.538;2023-05-16T09:50:51;49.90;;;29.63;;
73023;SDS011;61199;47.526;8.538;2023-05-16T09:53:25;54.90;;;30.20;;
73023;SDS011;61199;47.526;8.538;2023-05-16T09:56:05;49.90;;;28.70;;
73023;SDS011;61199;47.526;8.538;2023-05-16T09:58:36;54.40;;;29.07;;
73023;SDS011;61199;47.526;8.538;2023-05-16T10:01:07;60.07;;;29.87;;
73023;SDS011;61199;47.526;8.538;2023-05-16T10:03:35;51.30;;;29.90;;
73023;SDS011;61199;47.526;8.538;2023-05-16T10:06:04;52.80;;;30.10;;
73023;SDS011;61199;47.526;8.538;2023-05-16T10:08:32;57.20;;;30.00;;
73023;SDS011;61199;47.526;8.538;2023-05-16T10:11:02;50.53;;;28.73;;
73023;SDS011;61199;47.526;8.538;2023-05-16T10:13:31;50.47;;;26.87;;
73023;SDS011;61199;47.526;8.538;2023-05-16T10:16:00;40.57;;;24.17;;
73023;SDS011;61199;47.526;8.538;2023-05-16T10:18:32;39.63;;;24.10;;
73023;SDS011;61199;47.526;8.538;2023-05-16T10:21:03;31.67;;;20.53;;
73023;SDS011;61199;47.526;8.538;2023-05-16T10:23:33;28.07;;;17.20;;
73023;SDS011;61199;47.526;8.538;2023-05-16T10:26:02;36.37;;;17.87;;
73023;SDS011;61199;47.526;8.538;2023-05-16T10:28:29;26.33;;;15.10;;
73023;SDS011;61199;47.526;8.538;2023-05-16T10:30:56;25.90;;;14.10;;
73023;SDS011;61199;47.526;8.538;2023-05-16T10:33:24;21.20;;;12.00;;
73023;SDS011;61199;47.526;8.538;2023-05-16T10:35:51;17.27;;;10.60;;
73023;SDS011;61199;47.526;8.538;2023-05-16T10:38:18;17.03;;;9.80;;
73023;SDS011;61199;47.526;8.538;2023-05-16T10:40:46;16.50;;;8.90;;
73023;SDS011;61199;47.526;8.538;2023-05-16T10:43:24;13.53;;;7.83;;
73023;SDS011;61199;47.526;8.538;2023-05-16T10:45:56;13.33;;;8.10;;
73023;SDS011;61199;47.526;8.538;2023-05-16T10:48:31;12.63;;;7.90;;
73023;SDS011;61199;47.526;8.538;2023-05-16T10:50:58;9.63;;;6.73;;
73023;SDS011;61199;47.526;8.538;2023-05-16T11:11:39;12.20;;;7.20;;
73023;SDS011;61199;47.526;8.538;2023-05-16T11:14:21;13.30;;;8.13;;
73023;SDS011;61199;47.526;8.538;2023-05-16T11:17:13;11.53;;;7.93;;
73023;SDS011;61199;47.526;8.538;2023-05-16T11:19:51;12.90;;;9.00;;
73023;SDS011;61199;47.526;8.538;2023-05-16T11:22:22;14.20;;;9.17;;
73023;SDS011;61199;47.526;8.538;2023-05-16T11:27:44;16.90;;;9.30;;
73023;SDS011;61199;47.526;8.538;2023-05-16T11:30:13;15.23;;;9.60;;
73023;SDS011;61199;47.526;8.538;2023-05-16T11:32:45;18.70;;;10.80;;
73023;SDS011;61199;47.526;8.538;2023-05-16T11:35:16;16.13;;;10.27;;
73023;SDS011;61199;47.526;8.538;2023-05-16T11:37:44;15.10;;;10.13;;
73023;SDS011;61199;47.526;8.538;2023-05-16T11:40:12;19.20;;;9.00;;
73023;SDS011;61199;47.526;8.538;2023-05-16T11:42:40;14.27;;;8.90;;
73023;SDS011;61199;47.526;8.538;2023-05-16T11:45:16;15.00;;;8.80;;
73023;SDS011;61199;47.526;8.538;2023-05-16T11:47:44;11.17;;;7.43;;
73023;SDS011;61199;47.526;8.538;2023-05-16T11:50:14;11.50;;;7.40;;
73023;SDS011;61199;47.526;8.538;2023-05-16T11:52:42;21.63;;;11.33;;
73023;SDS011;61199;47.526;8.538;2023-05-16T11:55:14;13.67;;;8.77;;
73023;SDS011;61199;47.526;8.538;2023-05-16T11:58:03;16.60;;;8.60;;
73023;SDS011;61199;47.526;8.538;2023-05-16T12:00:29;10.30;;;7.33;;
73023;SDS011;61199;47.526;8.538;2023-05-16T12:02:59;12.83;;;7.77;;
73023;SDS011;61199;47.526;8.538;2023-05-16T12:05:31;12.17;;;7.53;;
73023;SDS011;61199;47.526;8.538;2023-05-16T12:08:00;12.00;;;8.00;;
73023;SDS011;61199;47.526;8.538;2023-05-16T12:10:27;12.13;;;8.20;;
73023;SDS011;61199;47.526;8.538;2023-05-16T12:12:56;14.30;;;8.80;;
73023;SDS011;61199;47.526;8.538;2023-05-16T12:15:23;13.80;;;9.70;;
73023;SDS011;61199;47.526;8.538;2023-05-16T12:17:49;15.60;;;8.90;;
73023;SDS011;61199;47.526;8.538;2023-05-16T12:20:17;19.30;;;9.60;;
73023;SDS011;61199;47.526;8.538;2023-05-16T12:22:44;19.77;;;10.03;;
73023;SDS011;61199;47.526;8.538;2023-05-16T12:25:19;15.10;;;10.37;;
73023;SDS011;61199;47.526;8.538;2023-05-16T12:27:58;13.97;;;9.37;;
73023;SDS011;61199;47.526;8.538;2023-05-16T12:30:27;14.00;;;8.87;;
73023;SDS011;61199;47.526;8.538;2023-05-16T12:32:56;17.70;;;10.93;;
73023;SDS011;61199;47.526;8.538;2023-05-16T12:35:23;16.40;;;10.73;;
73023;SDS011;61199;47.526;8.538;2023-05-16T12:37:51;26.87;;;10.00;;
73023;SDS011;61199;47.526;8.538;2023-05-16T12:40:18;15.57;;;10.20;;
73023;SDS011;61199;47.526;8.538;2023-05-16T12:42:49;13.70;;;9.00;;
73023;SDS011;61199;47.526;8.538;2023-05-16T12:45:19;16.80;;;10.10;;
73023;SDS011;61199;47.526;8.538;2023-05-16T12:47:47;15.63;;;10.53;;
73023;SDS011;61199;47.526;8.538;2023-05-16T12:50:14;16.70;;;9.93;;
73023;SDS011;61199;47.526;8.538;2023-05-16T12:52:46;15.10;;;10.60;;
73023;SDS011;61199;47.526;8.538;2023-05-16T12:55:15;11.90;;;9.00;;
73023;SDS011;61199;47.526;8.538;2023-05-16T12:57:42;19.63;;;10.00;;
73023;SDS011;61199;47.526;8.538;2023-05-16T13:00:11;17.07;;;10.30;;
73023;SDS011;61199;47.526;8.538;2023-05-16T13:02:37;19.57;;;10.80;;
73023;SDS011;61199;47.526;8.538;2023-05-16T13:05:04;20.43;;;11.40;;
73023;SDS011;61199;47.526;8.538;2023-05-16T13:07:33;16.40;;;10.30;;
73023;SDS011;61199;47.526;8.538;2023-05-16T13:10:00;18.63;;;10.10;;
73023;SDS011;61199;47.526;8.538;2023-05-16T13:12:26;19.63;;;11.30;;
73023;SDS011;61199;47.526;8.538;2023-05-16T13:14:53;17.20;;;11.27;;
73023;SDS011;61199;47.526;8.538;2023-05-16T13:17:20;18.50;;;11.03;;
73023;SDS011;61199;47.526;8.538;2023-05-16T13:19:49;19.27;;;12.03;;
73023;SDS011;61199;47.526;8.538;2023-05-16T13:22:16;18.57;;;11.37;;
73023;SDS011;61199;47.526;8.538;2023-05-16T13:24:43;17.70;;;10.30;;
73023;SDS011;61199;47.526;8.538;2023-05-16T13:27:09;19.10;;;11.60;;
73023;SDS011;61199;47.526;8.538;2023-05-16T13:29:35;23.80;;;12.13;;
73023;SDS011;61199;47.526;8.538;2023-05-16T13:32:02;23.20;;;12.97;;
73023;SDS011;61199;47.526;8.538;2023-05-16T13:34:29;20.57;;;12.40;;
73023;SDS011;61199;47.526;8.538;2023-05-16T13:36:57;18.97;;;12.27;;
73023;SDS011;61199;47.526;8.538;2023-05-16T13:39:23;17.17;;;11.17;;
73023;SDS011;61199;47.526;8.538;2023-05-16T13:41:50;17.07;;;10.60;;
73023;SDS011;61199;47.526;8.538;2023-05-16T13:44:17;19.67;;;10.13;;
73023;SDS011;61199;47.526;8.538;2023-05-16T13:46:43;16.83;;;9.57;;
73023;SDS011;61199;47.526;8.538;2023-05-16T13:49:11;13.40;;;8.97;;
73023;SDS011;61199;47.526;8.538;2023-05-16T13:51:37;14.00;;;9.30;;
73023;SDS011;61199;47.526;8.538;2023-05-16T13:54:04;16.50;;;8.27;;
73023;SDS011;61199;47.526;8.538;2023-05-16T13:56:30;14.60;;;8.10;;
73023;SDS011;61199;47.526;8.538;2023-05-16T13:58:56;18.30;;;8.70;;
73023;SDS011;61199;47.526;8.538;2023-05-16T14:01:31;13.17;;;7.50;;
73023;SDS011;61199;47.526;8.538;2023-05-16T14:03:58;14.50;;;7.90;;
73023;SDS011;61199;47.526;8.538;2023-05-16T14:06:24;11.10;;;7.67;;
73023;SDS011;61199;47.526;8.538;2023-05-16T14:08:51;11.90;;;7.73;;
73023;SDS011;61199;47.526;8.538;2023-05-16T14:11:17;11.20;;;6.83;;
73023;SDS011;61199;47.526;8.538;2023-05-16T14:13:45;13.60;;;8.13;;
73023;SDS011;61199;47.526;8.538;2023-05-16T14:16:11;10.00;;;6.40;;
73023;SDS011;61199;47.526;8.538;2023-05-16T14:18:38;12.10;;;6.80;;
73023;SDS011;61199;47.526;8.538;2023-05-16T14:21:04;11.30;;;6.70;;
73023;SDS011;61199;47.526;8.538;2023-05-16T14:23:31;10.70;;;6.50;;
73023;SDS011;61199;47.526;8.538;2023-05-16T14:25:57;13.10;;;7.07;;
73023;SDS011;61199;47.526;8.538;2023-05-16T14:28:24;11.50;;;6.67;;
73023;SDS011;61199;47.526;8.538;2023-05-16T14:30:50;14.03;;;6.97;;
73023;SDS011;61199;47.526;8.538;2023-05-16T14:33:17;12.07;;;6.63;;
73023;SDS011;61199;47.526;8.538;2023-05-16T14:35:43;10.27;;;6.70;;
73023;SDS011;61199;47.526;8.538;2023-05-16T14:38:10;9.47;;;6.40;;
73023;SDS011;61199;47.526;8.538;2023-05-16T14:40:36;9.83;;;5.83;;
73023;SDS011;61199;47.526;8.538;2023-05-16T14:43:03;9.93;;;6.10;;
73023;SDS011;61199;47.526;8.538;2023-05-16T14:45:29;11.23;;;4.90;;
73023;SDS011;61199;47.526;8.538;2023-05-16T14:47:56;6.67;;;4.80;;
73023;SDS011;61199;47.526;8.538;2023-05-16T14:50:22;6.30;;;4.40;;
73023;SDS011;61199;47.526;8.538;2023-05-16T14:52:49;7.83;;;5.83;;
73023;SDS011;61199;47.526;8.538;2023-05-16T14:55:15;6.90;;;4.80;;
73023;SDS011;61199;47.526;8.538;2023-05-16T14:57:42;12.70;;;4.43;;
73023;SDS011;61199;47.526;8.538;2023-05-16T15:00:11;7.30;;;4.80;;